Time;durP1;ratioP1;P1;durP2;ratioP2;P2;SDS_P1;SDS_P2;PMS_P1;PMS_P2;Temp;Humidity;BMP_temperature;BMP_pressure;BME280_temperature;BME280_humidity;BME280_pressure;Samples;Min_cycle;Max_cycle;Signal;HPM_P1;HPM_P2
2022/05/01 00:00:23;;;;;;;54.50;6.13;;;;;;;21.25;53.38;99863.66;7311250;19;129548;-38
2022/05/01 00:02:48;;;;;;;16.67;2.87;;;;;;;21.28;53.31;99863.41;7310836;19;128732;-36
2022/05/01 00:05:13;;;;;;;15.00;2.88;;;;;;;21.26;53.88;99859.25;7314587;19;129111;-36
2022/05/01 00:07:39;;;;;;;19.73;3.15;;;;;;;21.21;53.01;99841.34;7312451;19;159184;-37
2022/05/01 00:10:04;;;;;;;11.45;2.60;;;;;;;21.27;52.61;99856.50;7313027;19;158429;-37
2022/05/01 00:12:31;;;;;;;15.00;2.58;;;;;;;21.27;53.77;99856.50;7311503;19;129520;-37
2022/05/01 00:14:56;;;;;;;64.75;7.18;;;;;;;21.28;53.70;99849.50;7312457;19;129103;-39
2022/05/01 00:17:22;;;;;;;26.40;3.80;;;;;;;21.27;53.46;99853.88;7313615;19;131009;-40
2022/05/01 00:19:47;;;;;;;15.15;3.00;;;;;;;21.27;53.69;99856.50;7311804;19;158663;-41
2022/05/01 00:22:12;;;;;;;4.15;2.30;;;;;;;21.28;53.49;99852.94;7311936;19;154814;-37
2022/05/01 00:24:37;;;;;;;18.88;3.42;;;;;;;21.29;53.67;99851.97;7312261;19;154388;-37
2022/05/01 00:27:03;;;;;;;13.65;2.88;;;;;;;21.30;52.99;99856.25;7311655;19;159339;-40
2022/05/01 00:29:30;;;;;;;16.95;3.00;;;;;;;21.36;53.87;99857.50;7313098;19;130346;-39
2022/05/01 00:31:55;;;;;;;18.02;3.25;;;;;;;21.32;53.04;99856.94;7312343;19;129115;-41
2022/05/01 00:37:04;;;;;;;29.17;3.70;;;;;;;21.30;52.65;99851.03;7313748;19;129139;-40
2022/05/01 00:39:30;;;;;;;3.58;1.80;;;;;;;21.32;53.43;99849.09;7311380;19;159226;-38
2022/05/01 00:41:55;;;;;;;15.73;3.25;;;;;;;21.32;52.86;99856.94;7311053;19;154657;-37
2022/05/01 00:44:21;;;;;;;17.05;3.03;;;;;;;21.34;53.03;99849.78;7312121;19;154686;-38
2022/05/01 00:46:52;;;;;;;16.13;3.08;;;;;;;21.33;54.16;99856.00;7312753;19;130301;-39
2022/05/01 00:49:25;;;;;;;25.38;3.83;;;;;;;21.34;54.03;99852.41;7313038;19;129277;-37
2022/05/01 00:52:04;;;;;;;18.88;3.08;;;;;;;21.31;53.44;99857.06;7312159;19;129094;-38
2022/05/01 00:54:31;;;;;;;17.73;2.97;;;;;;;21.33;53.85;99850.75;7313277;19;128896;-41
2022/05/01 00:57:00;;;;;;;;;;;;;;;21.44;54.35;99863.72;7312548;19;129259;-39
2022/05/01 00:59:26;;;;;;;25.35;3.83;;;;;;;21.33;53.42;99863.00;7312614;19;130801;-37
2022/05/01 01:01:52;;;;;;;13.32;2.85;;;;;;;21.33;53.48;99866.44;7312030;19;133269;-40
2022/05/01 01:04:17;;;;;;;16.08;3.25;;;;;;;21.29;53.67;99865.03;7312604;19;129033;-40
2022/05/01 01:06:43;;;;;;;19.48;3.42;;;;;;;21.29;53.99;99865.03;7311599;19;132707;-39
2022/05/01 01:09:09;;;;;;;25.30;3.35;;;;;;;21.26;53.43;99860.09;7312626;19;129056;-41
2022/05/01 01:11:36;;;;;;;15.43;2.78;;;;;;;21.28;53.56;99868.63;7312292;19;128832;-37
2022/05/01 01:14:05;;;;;;;16.73;3.35;;;;;;;21.18;53.09;99852.06;7315537;19;128872;-39
2022/05/01 01:16:32;;;;;;;12.60;2.63;;;;;;;21.19;54.27;99853.72;7316297;19;129447;-37
2022/05/01 01:18:57;;;;;;;27.85;4.30;;;;;;;21.30;53.70;99866.72;7318475;19;129643;-40
2022/05/01 01:21:23;;;;;;;16.85;3.30;;;;;;;21.32;53.15;99864.78;7317143;19;129456;-40
2022/05/01 01:23:48;;;;;;;9.68;2.55;;;;;;;21.32;53.02;99870.00;7315594;19;154243;-37
2022/05/01 01:26:14;;;;;;;15.85;3.03;;;;;;;21.30;53.12;99861.50;7318472;19;130194;-37
2022/05/01 01:28:41;;;;;;;15.48;3.15;;;;;;;21.22;53.95;99848.22;7318706;19;129668;-38
2022/05/01 01:33:57;;;;;;;30.75;4.28;;;;;;;21.33;54.71;99870.84;7317242;19;128994;-37
2022/05/01 01:36:25;;;;;;;15.88;3.05;;;;;;;21.29;52.87;99869.44;7318557;19;129071;-38
2022/05/01 01:38:51;;;;;;;17.85;3.05;;;;;;;21.17;52.90;99860.84;7318432;19;130045;-38
2022/05/01 01:41:26;;;;;;;22.67;3.50;;;;;;;21.31;54.19;99873.59;7316241;19;129056;-39
2022/05/01 01:43:53;;;;;;;14.82;3.08;;;;;;;21.30;53.59;99871.94;7317057;19;129361;-40
2022/05/01 01:46:18;;;;;;;7.03;2.17;;;;;;;21.30;54.24;99876.34;7317523;19;129379;-39
2022/05/01 01:48:45;;;;;;;15.93;3.00;;;;;;;21.27;54.38;99868.75;7318650;19;130441;-41
2022/05/01 01:51:10;;;;;;;24.25;3.80;;;;;;;21.30;53.73;99874.56;7317412;19;129381;-38
2022/05/01 01:53:35;;;;;;;16.70;3.33;;;;;;;21.19;53.73;99866.78;7314286;19;153954;-40
2022/05/01 01:56:02;;;;;;;15.45;3.03;;;;;;;21.30;54.00;99877.19;7317793;19;130907;-39
2022/05/01 01:58:28;;;;;;;6.25;2.40;;;;;;;21.20;53.84;99860.63;7317492;19;131121;-39
2022/05/01 02:00:54;;;;;;;15.77;2.95;;;;;;;21.30;53.89;99871.94;7316169;19;128843;-41
2022/05/01 02:03:19;;;;;;;14.18;2.80;;;;;;;21.24;53.50;99864.59;7316287;19;128865;-40
2022/05/01 02:05:46;;;;;;;19.67;3.35;;;;;;;21.32;54.65;99869.19;7315875;19;158223;-38
2022/05/01 02:08:12;;;;;;;31.15;4.22;;;;;;;21.24;53.38;99867.22;7317611;19;129067;-37
2022/05/01 02:10:38;;;;;;;16.38;3.05;;;;;;;21.28;52.76;99873.03;7318768;19;129103;-37
2022/05/01 02:13:04;;;;;;;9.85;2.47;;;;;;;21.27;53.99;99861.72;7315921;19;128939;-37
2022/05/01 02:15:33;;;;;;;30.17;4.75;;;;;;;21.31;53.49;99863.13;7316386;19;129000;-40
2022/05/01 02:17:59;;;;;;;5.35;2.20;;;;;;;21.30;53.75;99861.50;7317303;19;130365;-40
2022/05/01 02:20:26;;;;;;;16.08;3.00;;;;;;;21.30;53.38;99860.66;7316042;19;128981;-37
2022/05/01 02:22:54;;;;;;;15.55;3.10;;;;;;;21.25;53.10;99855.81;7316795;19;129136;-40
2022/05/01 02:25:23;;;;;;;35.50;5.18;;;;;;;21.32;52.87;99870.00;7316059;19;130226;-38
2022/05/01 02:27:49;;;;;;;5.47;2.40;;;;;;;21.30;53.96;99865.88;7316747;19;129782;-39
2022/05/01 02:30:14;;;;;;;12.45;2.65;;;;;;;21.31;53.40;99868.38;7317953;19;129488;-37
2022/05/01 02:32:40;;;;;;;22.60;3.45;;;;;;;21.29;53.81;99859.81;7314890;19;154388;-37
2022/05/01 02:35:07;;;;;;;29.60;4.28;;;;;;;21.29;53.39;99856.38;7317089;19;129739;-40
2022/05/01 02:37:32;;;;;;;18.80;3.17;;;;;;;21.30;54.72;99856.25;7316763;19;129427;-41
2022/05/01 02:39:57;;;;;;;11.73;2.67;;;;;;;21.29;53.32;99851.97;7314570;19;154479;-40
2022/05/01 02:42:22;;;;;;;14.45;2.83;;;;;;;21.29;53.92;99857.19;7314050;19;154162;-37
2022/05/01 02:44:48;;;;;;;26.98;4.05;;;;;;;21.30;54.32;99860.66;7314930;19;158155;-38
2022/05/01 02:47:13;;;;;;;25.97;3.43;;;;;;;21.30;53.84;99860.66;7314481;19;159433;-38
2022/05/01 02:49:40;;;;;;;13.98;2.63;;;;;;;21.30;53.61;99858.88;7316903;19;128904;-37
2022/05/01 02:52:07;;;;;;;17.17;3.08;;;;;;;21.22;54.56;99842.19;7315746;19;129228;-37
2022/05/01 02:54:32;;;;;;;16.80;2.90;;;;;;;21.28;53.00;99866.03;7315833;19;130951;-38
2022/05/01 02:56:57;;;;;;;30.70;4.30;;;;;;;21.32;53.43;99870.00;7315861;19;129652;-36
2022/05/01 02:59:23;;;;;;;8.27;2.10;;;;;;;21.32;54.15;99871.81;7315145;19;153691;-38
2022/05/01 03:01:48;;;;;;;32.55;4.10;;;;;;;21.22;55.11;99874.38;7315745;19;136804;-38
2022/05/01 03:04:13;;;;;;;19.40;3.70;;;;;;;21.12;55.60;99873.47;7314512;19;158267;-40
2022/05/01 03:06:39;;;;;;;26.58;4.25;;;;;;;20.96;53.85;99867.88;7315828;19;130278;-40
2022/05/01 03:09:04;;;;;;;14.45;2.80;;;;;;;20.91;54.29;99871.84;7316462;19;129088;-38
2022/05/01 03:11:32;;;;;;;5.68;2.28;;;;;;;20.91;54.09;99872.66;7315830;19;128875;-38
2022/05/01 03:13:57;;;;;;;27.42;3.83;;;;;;;20.87;54.34;99873.88;7316613;19;130619;-38
2022/05/01 03:16:22;;;;;;;15.20;3.20;;;;;;;20.86;55.07;99872.22;7314762;19;129758;-36
2022/05/01 03:24:18;;;;;;;21.65;3.42;;;;;;;20.84;53.92;99860.25;7316365;19;129296;-40
2022/05/01 03:26:43;;;;;;;11.65;2.70;;;;;;;20.95;54.42;99875.84;7314675;19;129267;-39
2022/05/01 03:29:12;;;;;;;17.45;3.30;;;;;;;20.95;54.71;99875.84;7314597;19;155259;-41
2022/05/01 03:31:38;;;;;;;19.20;3.33;;;;;;;20.99;54.39;99872.88;7315026;19;129070;-39
2022/05/01 03:34:04;;;;;;;24.63;3.83;;;;;;;20.93;53.72;99873.34;7315670;19;130220;-38
2022/05/01 03:36:29;;;;;;;16.92;3.05;;;;;;;20.95;54.20;99870.63;7312841;19;130315;-39
2022/05/01 03:38:54;;;;;;;15.15;2.90;;;;;;;20.94;54.21;99863.75;7314985;19;128839;-40
2022/05/01 03:41:20;;;;;;;16.13;3.17;;;;;;;20.94;54.04;99868.97;7312443;19;147917;-41
2022/05/01 03:43:45;;;;;;;16.08;2.97;;;;;;;20.99;54.92;99875.47;7310561;19;158796;-36
2022/05/01 03:46:10;;;;;;;29.55;4.53;;;;;;;21.02;54.78;99877.88;7312504;19;158475;-36
2022/05/01 03:48:35;;;;;;;18.27;3.08;;;;;;;21.02;54.36;99879.63;7311617;19;154431;-38
2022/05/01 03:51:01;;;;;;;20.52;3.33;;;;;;;21.05;53.82;99877.59;7314488;19;128735;-41
2022/05/01 03:53:26;;;;;;;14.35;3.05;;;;;;;21.05;54.59;99880.22;7312206;19;130188;-37
2022/05/01 03:55:52;;;;;;;4.30;2.00;;;;;;;21.11;55.48;99878.84;7313451;19;129123;-38
2022/05/01 03:58:18;;;;;;;26.25;3.85;;;;;;;21.08;53.67;99874.72;7313724;19;128893;-38
2022/05/01 04:00:44;;;;;;;20.05;3.38;;;;;;;21.14;54.80;99878.63;7312802;19;129236;-39
2022/05/01 04:03:11;;;;;;;13.20;2.83;;;;;;;21.17;54.57;99878.34;7312547;19;129390;-37
2022/05/01 04:05:37;;;;;;;28.23;4.00;;;;;;;21.11;54.64;99866.63;7313267;19;130325;-37
2022/05/01 04:08:03;;;;;;;29.52;4.18;;;;;;;21.23;54.34;99878.66;7314440;19;128863;-39
2022/05/01 04:10:28;;;;;;;21.73;3.60;;;;;;;21.23;55.00;99888.28;7313100;19;128964;-39
2022/05/01 04:12:53;;;;;;;15.15;2.80;;;;;;;21.23;55.84;99880.44;7310282;19;158167;-37
2022/05/01 04:15:18;;;;;;;27.70;4.35;;;;;;;21.22;54.92;99889.25;7311494;19;158638;-38
2022/05/01 04:17:44;;;;;;;17.80;3.30;;;;;;;21.28;54.86;99896.56;7311564;19;155221;-37
2022/05/01 04:20:12;;;;;;;30.50;4.22;;;;;;;21.23;55.86;99902.19;7313001;19;128854;-40
2022/05/01 04:22:46;;;;;;;21.25;3.67;;;;;;;21.20;55.87;99899.00;7311456;19;129828;-38
2022/05/01 04:25:19;;;;;;;17.00;2.90;;;;;;;21.14;55.48;99892.50;7313255;19;131008;-37
2022/05/01 04:27:51;;;;;;;25.55;3.80;;;;;;;21.23;55.29;99906.59;7313028;19;129247;-38
2022/05/01 04:30:17;;;;;;;24.77;3.53;;;;;;;21.26;55.63;99899.31;7313703;19;128852;-37
2022/05/01 04:32:56;;;;;;;23.92;3.70;;;;;;;21.25;56.18;99900.28;7310631;19;129365;-38
2022/05/01 04:35:22;;;;;;;30.08;4.57;;;;;;;21.21;55.93;99906.72;7312306;19;129563;-36
2022/05/01 04:37:48;;;;;;;30.58;4.25;;;;;;;21.24;55.27;99903.84;7313687;19;130688;-38
2022/05/01 04:40:14;;;;;;;19.25;3.50;;;;;;;21.18;55.53;99909.59;7312864;19;129203;-38
2022/05/01 04:42:41;;;;;;;21.17;3.92;;;;;;;21.23;55.08;99910.03;7311390;19;129145;-39
2022/05/01 04:45:07;;;;;;;17.70;3.10;;;;;;;21.24;55.29;99913.44;7313542;19;131277;-40
2022/05/01 04:47:32;;;;;;;24.98;3.60;;;;;;;21.29;55.25;99921.75;7314014;19;129262;-37
2022/05/01 04:49:57;;;;;;;26.08;4.15;;;;;;;21.28;55.54;99920.94;7318178;19;154029;-41
2022/05/01 04:52:23;;;;;;;18.33;3.22;;;;;;;21.32;55.08;99911.84;7318553;19;150516;-41
2022/05/01 04:54:48;;;;;;;20.45;3.45;;;;;;;21.29;54.76;99916.50;7319422;19;157961;-40
2022/05/01 04:57:15;;;;;;;20.45;3.00;;;;;;;21.27;54.80;99921.88;7319714;19;129955;-38
2022/05/01 04:59:40;;;;;;;18.42;2.97;;;;;;;21.31;54.78;99912.81;7320337;19;129617;-39
2022/05/01 05:02:06;;;;;;;5.53;2.08;;;;;;;21.31;55.71;99907.59;7317454;19;132573;-38
2022/05/01 05:04:31;;;;;;;14.87;2.70;;;;;;;21.30;55.71;99916.41;7318024;19;157404;-39
2022/05/01 05:06:56;;;;;;;37.05;4.95;;;;;;;21.25;55.23;99920.34;7318506;19;128946;-41
2022/05/01 05:12:07;;;;;;;19.77;3.17;;;;;;;21.28;54.93;99923.56;7319053;19;129805;-39
2022/05/01 05:14:33;;;;;;;21.33;3.30;;;;;;;21.29;54.96;99921.75;7318370;19;130023;-38
2022/05/01 05:16:59;;;;;;;17.73;3.27;;;;;;;21.31;55.48;99925.91;7317943;19;128800;-39
2022/05/01 05:19:25;;;;;;;16.60;2.88;;;;;;;21.27;54.94;99927.09;7318904;19;129216;-38
2022/05/01 05:21:50;;;;;;;29.48;4.05;;;;;;;21.24;55.53;99923.91;7316332;19;130812;-39
2022/05/01 05:24:15;;;;;;;14.43;2.80;;;;;;;21.15;54.93;99912.47;7318223;19;130496;-37
2022/05/01 05:26:40;;;;;;;16.00;2.85;;;;;;;21.23;55.08;99933.56;7316450;19;155336;-38
2022/05/01 05:29:06;;;;;;;20.25;3.88;;;;;;;21.16;54.61;99928.97;7316955;19;154043;-37
2022/05/01 05:31:31;;;;;;;13.70;2.80;;;;;;;21.20;55.15;99928.59;7317453;19;158468;-38
2022/05/01 05:33:56;;;;;;;29.35;4.20;;;;;;;21.08;55.18;99919.16;7318320;19;146887;-38
2022/05/01 05:36:21;;;;;;;12.13;2.67;;;;;;;21.17;55.61;99928.84;7316047;19;154493;-37
2022/05/01 05:38:47;;;;;;;17.08;2.80;;;;;;;21.19;54.97;99933.97;7318019;19;128823;-38
2022/05/01 05:41:12;;;;;;;19.30;3.17;;;;;;;21.20;55.21;99933.81;7315733;19;157664;-37
2022/05/01 05:43:37;;;;;;;12.40;2.60;;;;;;;21.18;55.25;99930.50;7315238;19;138860;-36
2022/05/01 05:46:02;;;;;;;27.38;4.00;;;;;;;21.19;54.67;99940.00;7316207;19;155064;-38
2022/05/01 05:48:28;;;;;;;9.45;2.58;;;;;;;21.22;54.17;99937.13;7316512;19;151730;-37
2022/05/01 05:50:53;;;;;;;28.17;3.83;;;;;;;21.13;55.10;99926.59;7318595;19;130208;-38
2022/05/01 05:53:18;;;;;;;33.95;4.60;;;;;;;21.24;55.04;99939.59;7314768;19;142186;-37
2022/05/01 05:55:45;;;;;;;14.48;2.83;;;;;;;21.25;54.83;99947.34;7316202;19;154645;-37
2022/05/01 05:58:10;;;;;;;19.45;3.20;;;;;;;21.23;54.74;99951.03;7316795;19;129099;-37
2022/05/01 06:00:35;;;;;;;15.35;3.03;;;;;;;21.25;54.83;99947.34;7313227;19;158359;-39
2022/05/01 06:03:01;;;;;;;26.35;3.72;;;;;;;21.20;55.09;99944.28;7316144;19;131077;-38
2022/05/01 06:05:27;;;;;;;45.70;5.97;;;;;;;21.16;55.33;99931.56;7316966;19;128913;-38
2022/05/01 06:07:52;;;;;;;17.75;3.50;;;;;;;21.23;55.08;99949.25;7317061;19;128880;-38
2022/05/01 06:10:17;;;;;;;22.25;3.80;;;;;;;21.24;54.48;99950.91;7317052;19;130172;-40
2022/05/01 06:12:43;;;;;;;17.15;3.00;;;;;;;21.26;55.27;99956.84;7314360;19;158475;-38
2022/05/01 06:15:09;;;;;;;29.92;3.97;;;;;;;21.25;54.50;99952.56;7317270;19;128941;-38
2022/05/01 06:17:35;;;;;;;28.93;4.00;;;;;;;21.29;54.54;99946.13;7315823;19;128974;-37
2022/05/01 06:20:00;;;;;;;30.60;4.13;;;;;;;21.29;54.17;99955.75;7316451;19;129230;-38
2022/05/01 06:22:25;;;;;;;24.33;4.10;;;;;;;21.30;54.30;99953.03;7315755;19;129597;-37
2022/05/01 06:24:51;;;;;;;11.25;2.53;;;;;;;21.32;54.29;99953.69;7315414;19;155326;-38
2022/05/01 06:27:17;;;;;;;22.90;4.10;;;;;;;21.29;54.60;99948.72;7314402;19;153056;-39
2022/05/01 06:29:42;;;;;;;26.10;3.60;;;;;;;21.32;54.31;99953.69;7316697;19;129129;-41
2022/05/01 06:32:08;;;;;;;24.95;3.63;;;;;;;21.22;54.81;99946.78;7315269;19;129564;-37
2022/05/01 06:34:35;;;;;;;15.30;2.88;;;;;;;21.33;54.76;99959.75;7316911;19;128978;-38
2022/05/01 06:37:00;;;;;;;19.85;3.08;;;;;;;21.34;54.42;99956.19;7314979;19;129211;-41
2022/05/01 06:39:25;;;;;;;22.38;3.45;;;;;;;21.35;54.01;99958.69;7316513;19;129062;-37
2022/05/01 06:41:51;;;;;;;24.13;3.55;;;;;;;21.33;54.13;99950.13;7314050;19;130688;-37
2022/05/01 06:44:16;;;;;;;18.40;3.15;;;;;;;21.32;55.04;99958.94;7316161;19;129062;-40
2022/05/01 06:46:42;;;;;;;26.20;3.67;;;;;;;21.32;54.32;99964.16;7314438;19;145316;-37
2022/05/01 06:49:07;;;;;;;29.03;3.87;;;;;;;21.24;54.15;99940.44;7314351;19;159864;-38
2022/05/01 06:51:32;;;;;;;25.60;4.07;;;;;;;21.32;54.13;99958.94;7313936;19;158357;-38
2022/05/01 06:53:57;;;;;;;18.70;3.03;;;;;;;21.34;53.88;99957.00;7315449;19;154450;-37
2022/05/01 06:56:23;;;;;;;7.53;2.40;;;;;;;21.34;54.39;99953.56;7314804;19;136340;-40
2022/05/01 06:58:48;;;;;;;17.27;2.70;;;;;;;21.31;55.03;99957.28;7315182;19;157448;-37
2022/05/01 07:01:13;;;;;;;20.60;3.23;;;;;;;21.32;54.46;99948.47;7312765;19;158571;-37
2022/05/01 07:03:40;;;;;;;15.27;2.70;;;;;;;21.30;54.64;99947.78;7312174;19;154633;-36
2022/05/01 07:06:05;;;;;;;13.95;2.42;;;;;;;21.30;54.41;99945.19;7314983;19;128991;-39
2022/05/01 07:08:30;;;;;;;20.90;3.23;;;;;;;21.31;54.55;99954.66;7313586;19;158559;-37
2022/05/01 07:10:56;;;;;;;24.67;3.60;;;;;;;21.31;54.37;99952.06;7314724;19;144218;-38
2022/05/01 07:13:21;;;;;;;14.23;2.63;;;;;;;21.27;54.52;99945.41;7312505;19;154724;-38
2022/05/01 07:15:46;;;;;;;14.60;2.67;;;;;;;21.24;54.48;99943.06;7314420;19;153682;-37
2022/05/01 07:18:12;;;;;;;22.70;3.13;;;;;;;21.26;53.84;99943.75;7315112;19;159165;-41
2022/05/01 07:20:38;;;;;;;21.02;3.15;;;;;;;21.24;54.90;99944.84;7314038;19;130890;-39
2022/05/01 07:23:03;;;;;;;20.33;3.07;;;;;;;21.23;54.80;99949.25;7312597;19;152089;-38
2022/05/01 07:25:28;;;;;;;31.25;5.03;;;;;;;21.23;55.53;99944.03;7315323;19;129457;-37
2022/05/01 07:27:53;;;;;;;31.80;3.85;;;;;;;21.22;54.88;99955.41;7315553;19;135277;-41
2022/05/01 07:30:19;;;;;;;19.83;3.40;;;;;;;21.22;54.54;99952.00;7313823;19;158417;-37
2022/05/01 07:32:44;;;;;;;22.15;3.65;;;;;;;21.23;55.40;99945.81;7313727;19;133007;-38
2022/05/01 07:35:09;;;;;;;17.58;2.97;;;;;;;21.22;54.60;99950.19;7313781;19;154924;-39
2022/05/01 07:37:34;;;;;;;17.73;2.97;;;;;;;21.22;54.56;99947.56;7313380;19;158395;-38
2022/05/01 07:40:01;;;;;;;28.70;3.85;;;;;;;21.21;53.67;99948.53;7313327;19;159107;-38
2022/05/01 07:42:26;;;;;;;4.07;2.00;;;;;;;21.15;53.92;99936.00;7312207;19;128824;-41
2022/05/01 07:44:51;;;;;;;16.30;2.70;;;;;;;21.24;55.46;99944.84;7315601;19;128748;-37
2022/05/01 07:47:17;;;;;;;24.05;3.45;;;;;;;21.16;55.21;99937.66;7314860;19;130120;-39
2022/05/01 07:49:42;;;;;;;27.17;3.88;;;;;;;21.19;55.16;99944.41;7314006;19;129203;-40
2022/05/01 07:52:09;;;;;;;27.40;3.65;;;;;;;21.19;54.52;99947.03;7312088;19;155409;-37
2022/05/01 07:54:34;;;;;;;29.88;3.85;;;;;;;21.17;55.04;99941.91;7314151;19;129168;-41
2022/05/01 07:56:59;;;;;;;15.38;2.85;;;;;;;21.10;54.09;99932.94;7314442;19;130130;-37
2022/05/01 07:59:25;;;;;;;16.58;2.70;;;;;;;21.19;55.60;99945.22;7313905;19;159205;-37
2022/05/01 08:01:50;;;;;;;31.45;4.50;;;;;;;21.18;54.67;99945.34;7312583;19;129082;-37
2022/05/01 08:04:31;;;;;;;30.42;3.60;;;;;;;21.17;55.00;99939.28;7314572;19;128880;-38
2022/05/01 08:07:05;;;;;;;20.55;3.47;;;;;;;21.21;55.26;99940.69;7312718;19;129352;-38
2022/05/01 08:09:31;;;;;;;23.80;3.45;;;;;;;21.06;55.11;99931.53;7313323;19;129940;-37
2022/05/01 08:11:56;;;;;;;11.20;2.60;;;;;;;21.15;55.51;99946.47;7313077;19;147955;-38
2022/05/01 08:14:22;;;;;;;17.83;2.83;;;;;;;21.13;54.67;99943.13;7313845;19;128834;-36
2022/05/01 08:16:49;;;;;;;16.63;3.13;;;;;;;21.12;54.69;99936.22;7313184;19;130690;-37
2022/05/01 08:21:58;;;;;;;20.35;3.40;;;;;;;21.19;55.71;99937.38;7311714;19;129552;-38
2022/05/01 08:24:23;;;;;;;17.90;2.92;;;;;;;21.16;54.68;99942.88;7312703;19;141982;-40
2022/05/01 08:26:49;;;;;;;31.37;4.13;;;;;;;21.17;54.50;99943.72;7311691;19;158215;-37
2022/05/01 08:29:15;;;;;;;14.50;3.03;;;;;;;21.15;54.95;99932.53;7313887;19;130223;-38
2022/05/01 08:31:44;;;;;;;25.95;3.63;;;;;;;21.14;55.88;99936.13;7313154;19;129059;-37
2022/05/01 08:34:10;;;;;;;23.25;3.60;;;;;;;21.13;54.32;99932.69;7312968;19;129144;-36
2022/05/01 08:36:36;;;;;;;13.10;2.60;;;;;;;21.13;55.28;99924.84;7312448;19;129712;-38
2022/05/01 08:39:02;;;;;;;18.47;3.03;;;;;;;21.15;55.60;99927.31;7312387;19;129515;-37
2022/05/01 08:41:30;;;;;;;21.58;3.03;;;;;;;21.14;54.56;99923.88;7311212;19;129332;-40
2022/05/01 08:44:00;;;;;;;30.02;3.95;;;;;;;21.11;55.33;99920.69;7309634;19;128699;-37
2022/05/01 08:46:28;;;;;;;13.45;2.70;;;;;;;21.13;55.85;99919.59;7311819;19;129838;-37
2022/05/01 08:49:09;;;;;;;24.05;3.40;;;;;;;21.17;55.48;99917.56;7311128;19;159253;-38
2022/05/01 08:51:40;;;;;;;19.85;3.00;;;;;;;21.18;55.31;99917.44;7312194;19;129048;-37
2022/05/01 08:54:07;;;;;;;18.35;2.92;;;;;;;21.17;55.89;99918.38;7312720;19;128733;-37
2022/05/01 08:56:34;;;;;;;13.75;2.50;;;;;;;21.15;55.30;99915.09;7311407;19;131569;-39
2022/05/01 08:59:04;;;;;;;18.88;3.13;;;;;;;21.17;54.79;99913.16;7312958;19;130286;-36
2022/05/01 09:01:31;;;;;;;16.50;2.88;;;;;;;21.21;54.30;99919.78;7312473;19;129136;-37
2022/05/01 09:03:57;;;;;;;18.13;2.97;;;;;;;21.22;54.48;99912.78;7308645;19;129999;-39
2022/05/01 09:06:22;;;;;;;13.80;2.40;;;;;;;21.22;53.82;99913.59;7310508;19;158490;-37
2022/05/01 09:08:51;;;;;;;24.70;3.40;;;;;;;21.17;55.39;99907.91;7311023;19;158040;-37
2022/05/01 09:14:02;;;;;;;26.02;3.53;;;;;;;21.26;54.18;99912.38;7312129;19;128783;-36
2022/05/01 09:16:27;;;;;;;30.90;3.70;;;;;;;21.26;54.00;99912.38;7311160;19;129167;-40
2022/05/01 09:18:52;;;;;;;14.88;2.35;;;;;;;21.16;54.74;99895.81;7310482;19;158535;-37
2022/05/01 09:21:17;;;;;;;12.23;2.42;;;;;;;21.24;54.51;99913.44;7310748;19;128912;-37
2022/05/01 09:23:48;;;;;;;15.13;2.60;;;;;;;21.26;54.93;99907.16;7308848;19;134665;-37
2022/05/01 09:26:17;;;;;;;32.10;4.13;;;;;;;21.25;54.57;99905.50;7310684;19;130256;-36
2022/05/01 09:28:50;;;;;;;14.43;2.65;;;;;;;21.28;55.39;99905.25;7312161;19;129147;-37
2022/05/01 09:31:17;;;;;;;19.75;2.95;;;;;;;21.24;54.55;99903.84;7311776;19;128831;-37
2022/05/01 09:33:42;;;;;;;18.63;2.85;;;;;;;21.28;54.63;99899.19;7308970;19;129291;-37
2022/05/01 09:36:10;;;;;;;31.23;4.03;;;;;;;21.27;53.69;99898.34;7316808;19;129131;-37
2022/05/01 09:38:35;;;;;;;14.05;2.30;;;;;;;21.26;54.21;99896.69;7318681;19;129164;-37
2022/05/01 09:41:12;;;;;;;15.85;2.75;;;;;;;21.28;55.46;99910.47;7317072;19;154209;-39
2022/05/01 09:43:45;;;;;;;26.08;3.40;;;;;;;21.15;54.88;99888.94;7316701;19;129235;-39
2022/05/01 09:46:14;;;;;;;39.97;4.75;;;;;;;21.24;54.73;99900.38;7317837;19;130632;-37
2022/05/01 09:48:40;;;;;;;17.17;2.72;;;;;;;21.26;54.44;99895.84;7318048;19;129934;-38
2022/05/01 09:51:19;;;;;;;15.27;2.45;;;;;;;21.27;55.29;99914.03;7317188;19;128954;-39
2022/05/01 09:53:45;;;;;;;27.38;3.60;;;;;;;21.24;53.92;99903.84;7316096;19;129052;-39
2022/05/01 09:56:12;;;;;;;15.57;2.53;;;;;;;21.24;54.70;99903.84;7317193;19;129621;-37
2022/05/01 09:58:40;;;;;;;14.82;2.70;;;;;;;21.23;54.99;99894.34;7317928;19;129635;-37
2022/05/01 10:01:14;;;;;;;21.30;3.13;;;;;;;21.15;55.43;99888.94;7317554;19;129038;-38
2022/05/01 10:03:47;;;;;;;18.40;2.63;;;;;;;21.23;54.38;99902.19;7315159;19;129363;-38
2022/05/01 10:06:15;;;;;;;19.55;3.38;;;;;;;21.20;54.32;99897.22;7316982;19;130245;-38
2022/05/01 10:08:42;;;;;;;17.17;2.92;;;;;;;21.22;54.59;99903.13;7316896;19;129340;-38
2022/05/01 10:11:08;;;;;;;26.58;3.55;;;;;;;21.21;55.54;99888.41;7318060;19;129988;-38
2022/05/01 10:13:35;;;;;;;17.65;2.78;;;;;;;21.21;54.94;99895.41;7315038;19;128876;-38
2022/05/01 10:16:03;;;;;;;13.73;2.55;;;;;;;21.18;54.54;99887.84;7317163;19;130811;-38
2022/05/01 10:18:29;;;;;;;26.55;3.38;;;;;;;21.22;54.77;99890.06;7316691;19;131062;-37
2022/05/01 10:20:55;;;;;;;14.93;2.40;;;;;;;21.25;54.54;99896.81;7316609;19;129208;-37
2022/05/01 10:23:22;;;;;;;13.85;2.28;;;;;;;21.22;54.22;99889.25;7315392;19;128960;-38
2022/05/01 10:25:51;;;;;;;15.10;2.75;;;;;;;21.18;54.06;99883.44;7315895;19;129819;-38
2022/05/01 10:28:38;;;;;;;29.20;3.63;;;;;;;21.13;55.58;99869.94;7317153;19;129836;-38
2022/05/01 10:34:46;;;;;;;23.83;3.28;;;;;;;21.23;55.39;99881.28;7317126;19;130241;-37
2022/05/01 10:37:42;;;;;;;38.25;4.15;;;;;;;21.21;54.81;99877.94;7316341;19;129211;-37
2022/05/01 10:40:07;;;;;;;19.23;2.75;;;;;;;21.15;54.53;99873.25;7316256;19;130367;-38
2022/05/01 10:42:42;;;;;;;26.58;3.45;;;;;;;21.16;54.01;99868.81;7313569;19;142657;-37
2022/05/01 10:45:23;;;;;;;35.30;4.20;;;;;;;21.14;55.26;99865.53;7315680;19;130319;-37
2022/05/01 10:47:52;;;;;;;14.07;2.60;;;;;;;21.15;55.23;99868.03;7315263;19;159014;-38
2022/05/01 10:50:26;;;;;;;14.63;2.58;;;;;;;21.17;55.37;99866.09;7316288;19;132462;-37
2022/05/01 10:53:01;;;;;;;3.20;1.50;;;;;;;21.19;55.16;99858.94;7315028;19;130571;-37
2022/05/01 10:55:40;;;;;;;52.45;5.97;;;;;;;21.16;54.30;99864.44;7314359;19;130033;-37
2022/05/01 10:58:26;;;;;;;25.60;3.42;;;;;;;21.18;55.45;99862.53;7316794;19;130400;-37
2022/05/01 11:00:53;;;;;;;15.98;2.78;;;;;;;21.15;54.05;99862.78;7313597;19;129306;-37
2022/05/01 11:03:28;;;;;;;32.88;4.18;;;;;;;21.16;54.81;99861.81;7312776;19;129282;-38
2022/05/01 11:06:08;;;;;;;18.98;2.92;;;;;;;21.18;55.05;99859.91;7315466;19;129384;-37
2022/05/01 11:08:36;;;;;;;11.00;2.10;;;;;;;21.15;54.73;99856.72;7314923;19;130222;-38
2022/05/01 11:11:05;;;;;;;13.68;2.40;;;;;;;21.11;54.75;99850.09;7315020;19;129347;-37
2022/05/01 11:13:36;;;;;;;17.17;2.58;;;;;;;21.15;55.01;99857.56;7311955;19;129383;-37
2022/05/01 11:16:03;;;;;;;13.90;2.45;;;;;;;21.15;54.54;99852.34;7312887;19;130330;-38
2022/05/01 11:18:33;;;;;;;29.80;3.57;;;;;;;21.16;54.97;99848.75;7310909;19;129076;-38
2022/05/01 11:21:20;;;;;;;14.57;2.50;;;;;;;21.17;54.93;99855.63;7315245;19;133818;-40
2022/05/01 11:24:03;;;;;;;20.63;2.97;;;;;;;21.20;54.91;99844.94;7312374;19;129014;-40
2022/05/01 11:26:29;;;;;;;16.55;2.75;;;;;;;21.13;54.75;99835.09;7313260;19;130782;-40
2022/05/01 11:29:06;;;;;;;33.73;4.17;;;;;;;21.14;54.68;99840.19;7314190;19;130763;-40
2022/05/01 11:31:37;;;;;;;19.63;2.53;;;;;;;21.15;55.05;99836.66;7315796;19;129709;-40
2022/05/01 11:34:19;;;;;;;16.35;2.38;;;;;;;21.17;55.12;99839.13;7314320;19;141207;-39
2022/05/01 11:37:06;;;;;;;20.90;2.70;;;;;;;21.15;55.42;99836.66;7314860;19;130275;-38
2022/05/01 11:39:46;;;;;;;31.27;3.75;;;;;;;21.16;54.97;99838.28;7314835;19;129686;-40